createdAt,value
2017-08-21T00:01:26.271Z,71.85
2017-08-21T00:06:30.858Z,71.76
2017-08-21T00:11:35.546Z,72.02
2017-08-21T00:16:38.668Z,71.87
2017-08-21T00:21:41.462Z,72.01
2017-08-21T00:26:46.626Z,71.95
2017-08-21T00:31:50.322Z,72.09
2017-08-21T00:36:53.346Z,71.99
2017-08-21T00:42:01.647Z,72.18
2017-08-21T00:47:06.079Z,72.33
2017-08-21T00:52:09.104Z,72.38
2017-08-21T00:57:11.652Z,72.87
2017-08-21T01:02:14.098Z,72.98
2017-08-21T01:07:18.046Z,72.84
2017-08-21T01:12:20.372Z,72.76
2017-08-21T01:17:22.935Z,72.66
2017-08-21T01:22:25.401Z,72.90
2017-08-21T01:27:27.950Z,73.24
2017-08-21T01:32:31.521Z,73.12
2017-08-21T01:37:33.997Z,73.16
2017-08-21T01:42:36.494Z,72.74
2017-08-21T01:47:38.581Z,72.89
2017-08-21T01:52:41.101Z,72.75
2017-08-21T01:58:15.529Z,73.04
2017-08-21T02:03:17.641Z,73.00
2017-08-21T02:08:20.159Z,72.96
2017-08-21T02:13:22.739Z,73.37
2017-08-21T02:18:25.213Z,73.33
2017-08-21T02:23:27.844Z,73.23
2017-08-21T02:28:30.511Z,72.85
2017-08-21T02:33:32.988Z,73.36
2017-08-21T02:38:45.590Z,73.39
2017-08-21T02:43:48.218Z,73.26
2017-08-21T02:48:50.455Z,73.09
2017-08-21T02:53:53.099Z,72.96
2017-08-21T02:58:55.640Z,72.82
2017-08-21T03:03:58.117Z,73.10
2017-08-21T03:09:00.466Z,73.04
2017-08-21T03:14:03.066Z,73.07
2017-08-21T03:19:09.121Z,73.42
2017-08-21T03:24:13.478Z,73.34
2017-08-21T03:29:15.899Z,73.29
2017-08-21T03:34:18.330Z,73.52
2017-08-21T03:39:23.513Z,73.71
2017-08-21T03:44:27.827Z,73.70
2017-08-21T03:49:34.800Z,73.77
2017-08-21T03:54:40.160Z,73.92
2017-08-21T03:59:44.671Z,73.92
2017-08-21T04:04:47.769Z,73.99
2017-08-21T04:09:52.337Z,73.71
2017-08-21T04:14:58.781Z,73.62
2017-08-21T04:20:04.119Z,73.69
2017-08-21T04:25:10.825Z,73.74
2017-08-21T04:30:13.299Z,73.66
2017-08-21T04:35:15.798Z,73.50
2017-08-21T04:40:22.645Z,73.46
2017-08-21T04:45:25.086Z,73.23
2017-08-21T04:50:27.648Z,73.08
2017-08-21T04:55:30.081Z,72.86
2017-08-21T05:00:32.414Z,72.55
2017-08-21T05:05:34.823Z,72.33
2017-08-21T05:10:52.084Z,72.15
2017-08-21T05:15:54.410Z,72.07
2017-08-21T05:20:56.775Z,71.78
2017-08-21T05:25:59.185Z,71.35
2017-08-21T05:31:01.516Z,70.49
2017-08-21T05:36:06.078Z,70.73
2017-08-21T05:41:14.237Z,70.55
2017-08-21T05:46:18.014Z,70.24
2017-08-21T05:51:21.482Z,70.21
2017-08-21T05:56:28.070Z,69.73
2017-08-21T06:01:32.751Z,69.22
2017-08-21T06:06:37.737Z,68.99
2017-08-21T06:11:42.122Z,69.09
2017-08-21T06:16:46.301Z,68.64
2017-08-21T06:21:50.198Z,68.89
2017-08-21T06:26:53.733Z,68.90
2017-08-21T06:31:56.170Z,68.66
2017-08-21T06:36:58.864Z,68.10
2017-08-21T06:42:01.589Z,68.38
2017-08-21T06:47:04.162Z,67.13
2017-08-21T06:52:06.823Z,66.91
2017-08-21T06:57:08.941Z,66.59
2017-08-21T07:02:11.260Z,66.77
2017-08-21T07:07:13.693Z,65.63
2017-08-21T07:12:15.998Z,65.38
2017-08-21T07:17:18.614Z,65.21
2017-08-21T07:22:21.281Z,64.92
2017-08-21T07:27:23.944Z,64.18
2017-08-21T07:32:27.082Z,63.61
2017-08-21T07:37:29.686Z,63.29
2017-08-21T07:42:32.071Z,63.03
2017-08-21T07:47:34.639Z,61.79
2017-08-21T07:52:37.128Z,61.31
2017-08-21T07:57:39.474Z,61.43
2017-08-21T08:02:42.073Z,60.58
2017-08-21T08:07:44.376Z,59.62
2017-08-21T08:12:46.849Z,59.42
2017-08-21T08:17:49.447Z,57.84
2017-08-21T08:22:51.776Z,57.63
2017-08-21T08:27:54.173Z,57.74
2017-08-21T08:32:56.685Z,56.93
2017-08-21T08:37:59.496Z,54.95
2017-08-21T08:43:02.308Z,53.75
2017-08-21T08:48:05.009Z,54.02
2017-08-21T08:53:10.798Z,53.20
2017-08-21T08:58:13.829Z,52.60
2017-08-21T09:03:16.461Z,53.44
2017-08-21T09:08:18.808Z,54.22
2017-08-21T09:13:21.316Z,54.83
2017-08-21T09:18:23.992Z,53.32
2017-08-21T09:23:26.785Z,52.57
2017-08-21T09:28:30.113Z,52.18
2017-08-21T09:33:32.822Z,53.06
2017-08-21T09:38:35.332Z,51.84
2017-08-21T09:43:37.678Z,51.13
2017-08-21T09:48:40.334Z,50.79
2017-08-21T09:53:42.716Z,50.26
2017-08-21T09:58:45.344Z,48.86
2017-08-21T10:03:51.387Z,48.94
2017-08-21T10:08:55.990Z,47.67
2017-08-21T10:14:00.175Z,48.50
2017-08-21T10:24:13.212Z,48.46
2017-08-21T10:29:16.808Z,50.32
2017-08-21T10:34:20.502Z,47.10
2017-08-21T10:39:24.340Z,47.75
2017-08-21T10:44:28.895Z,45.72
2017-08-21T10:49:32.402Z,45.16
2017-08-21T10:54:36.120Z,45.00
2017-08-21T10:59:39.251Z,43.57
2017-08-21T11:04:42.198Z,43.61
2017-08-21T11:09:45.113Z,43.11
2017-08-21T11:14:47.971Z,43.87
2017-08-21T11:19:50.193Z,44.80
2017-08-21T11:24:52.570Z,46.10
2017-08-21T11:29:55.331Z,45.97
2017-08-21T11:34:58.001Z,46.00
2017-08-21T11:40:00.426Z,44.16
2017-08-21T11:45:03.088Z,43.10
2017-08-21T11:50:05.751Z,42.87
2017-08-21T11:55:08.182Z,41.90
2017-08-21T12:00:10.990Z,41.59
2017-08-21T12:05:13.695Z,40.48
2017-08-21T12:10:16.135Z,41.22
2017-08-21T12:15:18.811Z,40.71
2017-08-21T12:20:21.000Z,41.58
2017-08-21T12:25:23.233Z,41.09
2017-08-21T12:30:37.120Z,40.31
2017-08-21T12:35:54.519Z,39.59
2017-08-21T12:46:17.755Z,39.44
2017-08-21T12:51:20.231Z,38.61
2017-08-21T12:56:22.823Z,40.67
2017-08-21T13:01:26.106Z,39.63
2017-08-21T13:06:28.760Z,40.12
2017-08-21T13:11:31.212Z,39.09
2017-08-21T13:16:33.504Z,38.23
2017-08-21T13:21:35.775Z,38.49
2017-08-21T13:26:38.117Z,38.71
2017-08-21T13:31:40.556Z,38.12
2017-08-21T13:36:57.782Z,38.38
2017-08-21T13:42:00.064Z,38.49
2017-08-21T13:47:02.510Z,38.67
2017-08-21T13:52:04.715Z,36.66
2017-08-21T13:57:06.879Z,38.07
2017-08-21T14:02:09.144Z,37.54
2017-08-21T14:07:11.451Z,37.89
2017-08-21T14:12:13.661Z,37.42
2017-08-21T14:17:16.040Z,36.90
2017-08-21T14:22:18.367Z,36.54
2017-08-21T14:27:20.678Z,35.16
2017-08-21T14:32:22.891Z,35.47
2017-08-21T14:37:25.207Z,34.69
2017-08-21T14:42:28.348Z,34.53
2017-08-21T14:47:31.001Z,36.80
2017-08-21T14:52:33.599Z,35.79
2017-08-21T14:57:35.928Z,34.76
2017-08-21T15:02:38.122Z,34.38
2017-08-21T15:07:41.007Z,33.40
2017-08-21T15:12:43.384Z,34.12
2017-08-21T15:17:45.878Z,35.20
2017-08-21T15:22:48.101Z,36.12
2017-08-21T15:27:50.464Z,35.80
2017-08-21T15:38:11.938Z,35.48
2017-08-21T15:48:42.244Z,35.12
2017-08-21T15:53:59.519Z,34.70
2017-08-21T15:59:02.549Z,34.94
2017-08-21T16:04:05.444Z,34.92
2017-08-21T16:09:07.791Z,34.52
2017-08-21T16:14:10.287Z,34.99
2017-08-21T16:19:13.295Z,34.87
2017-08-21T16:24:26.653Z,34.76
2017-08-21T16:29:29.357Z,34.75
2017-08-21T16:34:33.215Z,35.25
2017-08-21T16:44:51.189Z,36.38
2017-08-21T16:49:53.496Z,36.63
2017-08-21T16:54:56.076Z,37.11
2017-08-21T16:59:58.643Z,37.91
2017-08-21T17:05:01.349Z,38.09
2017-08-21T17:10:09.788Z,37.72
2017-08-21T17:15:12.175Z,37.95
2017-08-21T17:20:14.747Z,38.22
2017-08-21T17:25:17.063Z,38.84
2017-08-21T17:30:19.419Z,39.31
2017-08-21T17:35:33.948Z,39.71
2017-08-21T17:40:48.628Z,40.16
2017-08-21T17:45:52.246Z,40.15
2017-08-21T17:50:54.724Z,40.83
2017-08-21T17:55:57.024Z,41.57
2017-08-21T18:00:59.391Z,42.19
2017-08-21T18:06:01.884Z,43.70
2017-08-21T18:11:04.241Z,46.23
2017-08-21T18:16:08.707Z,49.05
2017-08-21T18:21:11.155Z,50.57
2017-08-21T18:26:13.592Z,51.76
2017-08-21T18:31:16.384Z,53.16
2017-08-21T18:36:18.860Z,54.35
2017-08-21T18:41:21.203Z,55.20
2017-08-21T18:46:23.815Z,55.92
2017-08-21T18:51:28.741Z,56.79
2017-08-21T18:56:35.921Z,57.43
2017-08-21T19:01:48.729Z,57.54
2017-08-21T19:06:57.320Z,58.41
2017-08-21T19:12:04.655Z,58.65
2017-08-21T19:17:07.917Z,59.58
2017-08-21T19:22:14.526Z,59.92
2017-08-21T19:27:17.060Z,60.39
2017-08-21T19:32:22.672Z,60.68
2017-08-21T19:37:25.388Z,60.77
2017-08-21T19:42:29.129Z,61.56
2017-08-21T19:47:31.579Z,62.28
2017-08-21T19:52:33.905Z,61.38
2017-08-21T19:57:36.309Z,62.09
2017-08-21T20:02:38.580Z,62.89
2017-08-21T20:07:40.952Z,62.99
2017-08-21T20:12:43.459Z,63.20
2017-08-21T20:17:49.096Z,63.79
2017-08-21T20:22:56.419Z,63.85
2017-08-21T20:28:01.645Z,64.35
2017-08-21T20:33:04.605Z,63.39
2017-08-21T20:38:07.244Z,64.80
2017-08-21T20:43:14.740Z,64.37
2017-08-21T20:48:17.292Z,64.38
2017-08-21T20:53:19.737Z,64.41
2017-08-21T20:58:21.935Z,64.53
2017-08-21T21:03:27.384Z,64.65
2017-08-21T21:08:29.896Z,64.93
2017-08-21T21:13:32.403Z,64.94
2017-08-21T21:18:34.802Z,65.38
2017-08-21T21:23:37.186Z,65.57
2017-08-21T21:28:39.537Z,65.82
2017-08-21T21:33:41.926Z,66.42
2017-08-21T21:38:44.375Z,66.79
2017-08-21T21:43:46.832Z,67.28
2017-08-21T21:48:49.306Z,67.32
2017-08-21T21:53:51.720Z,67.58
2017-08-21T21:58:54.070Z,67.24
2017-08-21T22:03:56.449Z,66.57
2017-08-21T22:08:59.005Z,67.15
2017-08-21T22:14:01.547Z,67.48
2017-08-21T22:19:06.207Z,67.60
2017-08-21T22:24:08.552Z,67.67
2017-08-21T22:29:11.001Z,67.75
2017-08-21T22:34:13.362Z,67.88
2017-08-21T22:39:15.796Z,67.29
2017-08-21T22:44:18.264Z,67.11
2017-08-21T22:49:20.534Z,67.14
2017-08-21T22:54:24.327Z,67.00
2017-08-21T22:59:31.666Z,67.80
2017-08-21T23:04:37.902Z,68.59
2017-08-21T23:09:44.281Z,67.55
2017-08-21T23:14:50.643Z,68.38
2017-08-21T23:19:57.663Z,68.63
2017-08-21T23:25:02.103Z,67.88
2017-08-21T23:30:07.555Z,68.01
2017-08-21T23:35:15.007Z,67.53
2017-08-21T23:40:19.417Z,67.88
2017-08-21T23:45:25.966Z,68.41
2017-08-21T23:50:31.985Z,68.79
2017-08-21T23:55:34.923Z,68.06
